sensor_id;sensor_type;location;lat;lon;timestamp;P1;durP1;ratioP1;P2;durP2;ratioP2
15340;SDS011;7770;52.158;5.372;2022-07-21T00:02:15;15.83;;;14.33;;
15340;SDS011;7770;52.158;5.372;2022-07-21T00:05:01;16.63;;;15.03;;
15340;SDS011;7770;52.158;5.372;2022-07-21T00:07:48;17.63;;;15.10;;
15340;SDS011;7770;52.158;5.372;2022-07-21T00:10:35;16.27;;;14.80;;
15340;SDS011;7770;52.158;5.372;2022-07-21T00:13:21;18.50;;;16.80;;
15340;SDS011;7770;52.158;5.372;2022-07-21T00:16:07;19.80;;;17.90;;
15340;SDS011;7770;52.158;5.372;2022-07-21T00:18:53;20.40;;;18.33;;
15340;SDS011;7770;52.158;5.372;2022-07-21T00:21:40;19.20;;;17.40;;
15340;SDS011;7770;52.158;5.372;2022-07-21T00:24:26;18.93;;;17.23;;
15340;SDS011;7770;52.158;5.372;2022-07-21T00:27:12;19.00;;;17.37;;
15340;SDS011;7770;52.158;5.372;2022-07-21T00:29:58;17.97;;;16.13;;
15340;SDS011;7770;52.158;5.372;2022-07-21T00:32:44;18.27;;;16.50;;
15340;SDS011;7770;52.158;5.372;2022-07-21T00:35:30;17.80;;;16.10;;
15340;SDS011;7770;52.158;5.372;2022-07-21T00:38:16;16.30;;;14.80;;
15340;SDS011;7770;52.158;5.372;2022-07-21T00:41:02;16.30;;;14.90;;
15340;SDS011;7770;52.158;5.372;2022-07-21T00:43:48;17.20;;;15.60;;
15340;SDS011;7770;52.158;5.372;2022-07-21T00:46:34;16.70;;;15.17;;
15340;SDS011;7770;52.158;5.372;2022-07-21T00:49:20;15.53;;;14.20;;
15340;SDS011;7770;52.158;5.372;2022-07-21T00:52:06;16.27;;;14.77;;
15340;SDS011;7770;52.158;5.372;2022-07-21T00:54:52;16.90;;;15.40;;
15340;SDS011;7770;52.158;5.372;2022-07-21T00:57:39;15.97;;;14.43;;
15340;SDS011;7770;52.158;5.372;2022-07-21T01:00:27;15.00;;;13.60;;
15340;SDS011;7770;52.158;5.372;2022-07-21T01:03:14;14.83;;;13.53;;
15340;SDS011;7770;52.158;5.372;2022-07-21T01:06:00;15.73;;;14.33;;
15340;SDS011;7770;52.158;5.372;2022-07-21T01:08:47;14.67;;;13.30;;
15340;SDS011;7770;52.158;5.372;2022-07-21T01:11:33;13.73;;;12.37;;
15340;SDS011;7770;52.158;5.372;2022-07-21T01:14:20;13.63;;;12.43;;
15340;SDS011;7770;52.158;5.372;2022-07-21T01:17:06;13.80;;;12.50;;
15340;SDS011;7770;52.158;5.372;2022-07-21T01:19:52;13.83;;;12.53;;
15340;SDS011;7770;52.158;5.372;2022-07-21T01:22:39;13.10;;;12.00;;
15340;SDS011;7770;52.158;5.372;2022-07-21T01:25:28;14.17;;;12.23;;
15340;SDS011;7770;52.158;5.372;2022-07-21T01:28:14;13.23;;;12.03;;
15340;SDS011;7770;52.158;5.372;2022-07-21T01:31:00;13.03;;;11.87;;
15340;SDS011;7770;52.158;5.372;2022-07-21T01:33:46;13.60;;;12.33;;
15340;SDS011;7770;52.158;5.372;2022-07-21T01:36:32;13.10;;;11.90;;
15340;SDS011;7770;52.158;5.372;2022-07-21T01:39:18;13.23;;;12.13;;
15340;SDS011;7770;52.158;5.372;2022-07-21T01:42:23;12.67;;;11.57;;
15340;SDS011;7770;52.158;5.372;2022-07-21T01:45:09;13.53;;;12.33;;
15340;SDS011;7770;52.158;5.372;2022-07-21T01:47:56;13.90;;;12.70;;
15340;SDS011;7770;52.158;5.372;2022-07-21T01:50:42;13.77;;;12.57;;
15340;SDS011;7770;52.158;5.372;2022-07-21T01:53:28;15.07;;;13.23;;
15340;SDS011;7770;52.158;5.372;2022-07-21T01:56:14;15.30;;;13.90;;
15340;SDS011;7770;52.158;5.372;2022-07-21T01:59:00;15.50;;;14.00;;
15340;SDS011;7770;52.158;5.372;2022-07-21T02:01:47;15.80;;;14.40;;
15340;SDS011;7770;52.158;5.372;2022-07-21T02:04:33;16.70;;;15.10;;
15340;SDS011;7770;52.158;5.372;2022-07-21T02:07:19;15.60;;;14.17;;
15340;SDS011;7770;52.158;5.372;2022-07-21T02:10:05;16.07;;;14.63;;
15340;SDS011;7770;52.158;5.372;2022-07-21T02:12:52;15.43;;;14.00;;
15340;SDS011;7770;52.158;5.372;2022-07-21T02:15:38;15.80;;;14.30;;
15340;SDS011;7770;52.158;5.372;2022-07-21T02:18:24;15.93;;;14.43;;
15340;SDS011;7770;52.158;5.372;2022-07-21T02:21:10;15.80;;;14.40;;
15340;SDS011;7770;52.158;5.372;2022-07-21T02:23:56;15.80;;;14.33;;
15340;SDS011;7770;52.158;5.372;2022-07-21T02:26:42;16.07;;;14.50;;
15340;SDS011;7770;52.158;5.372;2022-07-21T02:29:28;15.33;;;14.00;;
15340;SDS011;7770;52.158;5.372;2022-07-21T02:32:14;15.93;;;14.43;;
15340;SDS011;7770;52.158;5.372;2022-07-21T02:35:00;15.83;;;14.33;;
15340;SDS011;7770;52.158;5.372;2022-07-21T02:37:46;15.50;;;14.20;;
15340;SDS011;7770;52.158;5.372;2022-07-21T02:40:32;16.07;;;14.60;;
15340;SDS011;7770;52.158;5.372;2022-07-21T02:43:19;16.23;;;14.83;;
15340;SDS011;7770;52.158;5.372;2022-07-21T02:46:05;16.07;;;14.60;;
15340;SDS011;7770;52.158;5.372;2022-07-21T02:48:51;15.63;;;14.23;;
15340;SDS011;7770;52.158;5.372;2022-07-21T02:51:37;15.90;;;14.40;;
15340;SDS011;7770;52.158;5.372;2022-07-21T02:54:24;16.80;;;15.20;;
15340;SDS011;7770;52.158;5.372;2022-07-21T02:57:10;16.53;;;14.93;;
15340;SDS011;7770;52.158;5.372;2022-07-21T02:59:57;16.47;;;14.97;;
15340;SDS011;7770;52.158;5.372;2022-07-21T03:02:43;16.97;;;15.47;;
15340;SDS011;7770;52.158;5.372;2022-07-21T03:05:29;15.87;;;14.40;;
15340;SDS011;7770;52.158;5.372;2022-07-21T03:08:16;16.83;;;15.23;;
15340;SDS011;7770;52.158;5.372;2022-07-21T03:11:03;17.30;;;15.70;;
15340;SDS011;7770;52.158;5.372;2022-07-21T03:13:49;17.37;;;15.80;;
15340;SDS011;7770;52.158;5.372;2022-07-21T03:16:35;17.63;;;16.03;;
15340;SDS011;7770;52.158;5.372;2022-07-21T03:19:21;18.37;;;16.47;;
15340;SDS011;7770;52.158;5.372;2022-07-21T03:22:07;19.13;;;17.27;;
15340;SDS011;7770;52.158;5.372;2022-07-21T03:24:53;19.10;;;17.40;;
15340;SDS011;7770;52.158;5.372;2022-07-21T03:27:39;20.73;;;18.77;;
15340;SDS011;7770;52.158;5.372;2022-07-21T03:30:25;21.47;;;19.53;;
15340;SDS011;7770;52.158;5.372;2022-07-21T03:33:11;21.70;;;19.60;;
15340;SDS011;7770;52.158;5.372;2022-07-21T03:35:58;22.50;;;20.33;;
15340;SDS011;7770;52.158;5.372;2022-07-21T03:38:44;21.73;;;19.50;;
15340;SDS011;7770;52.158;5.372;2022-07-21T03:41:30;22.97;;;20.57;;
15340;SDS011;7770;52.158;5.372;2022-07-21T03:44:16;22.53;;;20.33;;
15340;SDS011;7770;52.158;5.372;2022-07-21T03:47:02;23.20;;;21.00;;
15340;SDS011;7770;52.158;5.372;2022-07-21T03:49:48;23.50;;;21.30;;
15340;SDS011;7770;52.158;5.372;2022-07-21T03:52:35;26.13;;;23.70;;
15340;SDS011;7770;52.158;5.372;2022-07-21T03:55:21;26.90;;;24.10;;
15340;SDS011;7770;52.158;5.372;2022-07-21T03:58:07;26.27;;;23.87;;
15340;SDS011;7770;52.158;5.372;2022-07-21T04:00:53;27.13;;;24.30;;
15340;SDS011;7770;52.158;5.372;2022-07-21T04:03:39;25.17;;;22.87;;
15340;SDS011;7770;52.158;5.372;2022-07-21T04:06:25;26.97;;;24.43;;
15340;SDS011;7770;52.158;5.372;2022-07-21T04:09:12;27.57;;;24.93;;
15340;SDS011;7770;52.158;5.372;2022-07-21T04:11:58;28.90;;;26.03;;
15340;SDS011;7770;52.158;5.372;2022-07-21T04:14:44;27.83;;;25.17;;
15340;SDS011;7770;52.158;5.372;2022-07-21T04:17:30;27.07;;;24.37;;
15340;SDS011;7770;52.158;5.372;2022-07-21T04:20:16;28.27;;;25.50;;
15340;SDS011;7770;52.158;5.372;2022-07-21T04:23:03;28.50;;;25.60;;
15340;SDS011;7770;52.158;5.372;2022-07-21T04:25:50;29.80;;;26.90;;
15340;SDS011;7770;52.158;5.372;2022-07-21T04:28:36;29.43;;;26.63;;
15340;SDS011;7770;52.158;5.372;2022-07-21T04:31:22;30.53;;;27.53;;
15340;SDS011;7770;52.158;5.372;2022-07-21T04:34:08;30.30;;;27.33;;
15340;SDS011;7770;52.158;5.372;2022-07-21T04:36:54;31.00;;;27.90;;
15340;SDS011;7770;52.158;5.372;2022-07-21T04:39:40;31.37;;;28.47;;
15340;SDS011;7770;52.158;5.372;2022-07-21T04:42:26;29.40;;;26.57;;
15340;SDS011;7770;52.158;5.372;2022-07-21T04:45:13;29.20;;;26.17;;
15340;SDS011;7770;52.158;5.372;2022-07-21T04:48:00;30.37;;;27.37;;
15340;SDS011;7770;52.158;5.372;2022-07-21T04:50:46;30.23;;;27.13;;
15340;SDS011;7770;52.158;5.372;2022-07-21T04:53:32;29.37;;;26.47;;
15340;SDS011;7770;52.158;5.372;2022-07-21T04:56:18;30.60;;;27.40;;
15340;SDS011;7770;52.158;5.372;2022-07-21T04:59:04;31.17;;;28.07;;
15340;SDS011;7770;52.158;5.372;2022-07-21T05:01:50;31.63;;;28.47;;
15340;SDS011;7770;52.158;5.372;2022-07-21T05:04:36;32.07;;;28.93;;
15340;SDS011;7770;52.158;5.372;2022-07-21T05:07:23;32.07;;;28.97;;
15340;SDS011;7770;52.158;5.372;2022-07-21T05:10:10;32.13;;;29.17;;
15340;SDS011;7770;52.158;5.372;2022-07-21T05:12:58;32.23;;;28.90;;
15340;SDS011;7770;52.158;5.372;2022-07-21T05:15:44;32.83;;;29.67;;
15340;SDS011;7770;52.158;5.372;2022-07-21T05:18:30;32.33;;;29.20;;
15340;SDS011;7770;52.158;5.372;2022-07-21T05:21:17;32.90;;;29.63;;
15340;SDS011;7770;52.158;5.372;2022-07-21T05:24:03;33.20;;;29.83;;
15340;SDS011;7770;52.158;5.372;2022-07-21T05:26:50;32.87;;;29.53;;
15340;SDS011;7770;52.158;5.372;2022-07-21T05:29:36;33.37;;;30.07;;
15340;SDS011;7770;52.158;5.372;2022-07-21T05:32:22;33.60;;;30.23;;
15340;SDS011;7770;52.158;5.372;2022-07-21T05:35:08;35.10;;;31.70;;
15340;SDS011;7770;52.158;5.372;2022-07-21T05:37:56;36.27;;;32.67;;
15340;SDS011;7770;52.158;5.372;2022-07-21T05:40:42;35.87;;;32.30;;
15340;SDS011;7770;52.158;5.372;2022-07-21T05:43:29;38.43;;;34.67;;
15340;SDS011;7770;52.158;5.372;2022-07-21T05:46:15;36.93;;;33.23;;
15340;SDS011;7770;52.158;5.372;2022-07-21T05:49:01;36.50;;;32.60;;
15340;SDS011;7770;52.158;5.372;2022-07-21T05:51:48;34.30;;;30.90;;
15340;SDS011;7770;52.158;5.372;2022-07-21T05:54:34;35.63;;;32.03;;
15340;SDS011;7770;52.158;5.372;2022-07-21T05:57:20;35.27;;;31.97;;
15340;SDS011;7770;52.158;5.372;2022-07-21T06:00:06;33.03;;;29.77;;
15340;SDS011;7770;52.158;5.372;2022-07-21T06:02:53;33.10;;;29.40;;
15340;SDS011;7770;52.158;5.372;2022-07-21T06:05:39;33.17;;;29.87;;
15340;SDS011;7770;52.158;5.372;2022-07-21T06:08:25;30.30;;;27.20;;
15340;SDS011;7770;52.158;5.372;2022-07-21T06:11:12;31.77;;;28.57;;
15340;SDS011;7770;52.158;5.372;2022-07-21T06:14:02;30.27;;;27.27;;
15340;SDS011;7770;52.158;5.372;2022-07-21T06:16:49;29.87;;;26.67;;
15340;SDS011;7770;52.158;5.372;2022-07-21T06:19:35;28.73;;;25.80;;
15340;SDS011;7770;52.158;5.372;2022-07-21T06:22:21;27.80;;;24.80;;
15340;SDS011;7770;52.158;5.372;2022-07-21T06:25:08;27.60;;;24.67;;
15340;SDS011;7770;52.158;5.372;2022-07-21T06:27:54;27.30;;;24.40;;
15340;SDS011;7770;52.158;5.372;2022-07-21T06:30:40;27.43;;;24.57;;
15340;SDS011;7770;52.158;5.372;2022-07-21T06:33:26;26.43;;;23.93;;
15340;SDS011;7770;52.158;5.372;2022-07-21T06:36:12;27.17;;;24.23;;
15340;SDS011;7770;52.158;5.372;2022-07-21T06:38:58;26.47;;;23.67;;
15340;SDS011;7770;52.158;5.372;2022-07-21T06:41:44;26.53;;;23.77;;
15340;SDS011;7770;52.158;5.372;2022-07-21T06:44:30;25.43;;;22.77;;
15340;SDS011;7770;52.158;5.372;2022-07-21T06:47:16;24.53;;;22.03;;
15340;SDS011;7770;52.158;5.372;2022-07-21T06:50:02;28.00;;;22.50;;
15340;SDS011;7770;52.158;5.372;2022-07-21T06:52:50;26.53;;;23.57;;
15340;SDS011;7770;52.158;5.372;2022-07-21T06:55:36;26.07;;;23.47;;
15340;SDS011;7770;52.158;5.372;2022-07-21T06:58:23;27.67;;;24.77;;
15340;SDS011;7770;52.158;5.372;2022-07-21T07:01:12;29.77;;;26.43;;
15340;SDS011;7770;52.158;5.372;2022-07-21T07:04:01;32.50;;;26.47;;
15340;SDS011;7770;52.158;5.372;2022-07-21T07:06:48;29.50;;;26.20;;
15340;SDS011;7770;52.158;5.372;2022-07-21T07:09:37;30.50;;;26.97;;
15340;SDS011;7770;52.158;5.372;2022-07-21T07:12:23;30.07;;;26.13;;
15340;SDS011;7770;52.158;5.372;2022-07-21T07:15:09;29.93;;;26.73;;
15340;SDS011;7770;52.158;5.372;2022-07-21T07:17:55;33.07;;;28.63;;
15340;SDS011;7770;52.158;5.372;2022-07-21T07:20:41;31.30;;;27.93;;
15340;SDS011;7770;52.158;5.372;2022-07-21T07:23:27;35.67;;;27.87;;
15340;SDS011;7770;52.158;5.372;2022-07-21T07:26:13;36.00;;;27.47;;
15340;SDS011;7770;52.158;5.372;2022-07-21T07:28:59;37.10;;;30.13;;
15340;SDS011;7770;52.158;5.372;2022-07-21T07:31:45;33.70;;;29.00;;
15340;SDS011;7770;52.158;5.372;2022-07-21T07:34:31;34.20;;;30.20;;
15340;SDS011;7770;52.158;5.372;2022-07-21T07:37:17;36.60;;;30.87;;
15340;SDS011;7770;52.158;5.372;2022-07-21T07:40:07;40.17;;;31.70;;
15340;SDS011;7770;52.158;5.372;2022-07-21T07:42:58;37.07;;;31.97;;
15340;SDS011;7770;52.158;5.372;2022-07-21T07:45:44;38.70;;;33.03;;
15340;SDS011;7770;52.158;5.372;2022-07-21T07:48:30;39.80;;;32.27;;
15340;SDS011;7770;52.158;5.372;2022-07-21T07:51:16;41.40;;;32.63;;
15340;SDS011;7770;52.158;5.372;2022-07-21T07:54:02;41.20;;;32.40;;
15340;SDS011;7770;52.158;5.372;2022-07-21T07:56:49;39.47;;;32.50;;
15340;SDS011;7770;52.158;5.372;2022-07-21T07:59:35;39.13;;;32.33;;
15340;SDS011;7770;52.158;5.372;2022-07-21T08:02:21;38.17;;;32.90;;
15340;SDS011;7770;52.158;5.372;2022-07-21T08:05:07;41.73;;;33.43;;
15340;SDS011;7770;52.158;5.372;2022-07-21T08:07:54;42.97;;;34.17;;
15340;SDS011;7770;52.158;5.372;2022-07-21T08:10:40;40.83;;;34.03;;
15340;SDS011;7770;52.158;5.372;2022-07-21T08:13:27;38.40;;;34.10;;
15340;SDS011;7770;52.158;5.372;2022-07-21T08:16:13;41.93;;;34.03;;
15340;SDS011;7770;52.158;5.372;2022-07-21T08:19:00;39.10;;;34.90;;
15340;SDS011;7770;52.158;5.372;2022-07-21T08:21:46;43.17;;;35.33;;
15340;SDS011;7770;52.158;5.372;2022-07-21T08:24:32;43.57;;;34.80;;
15340;SDS011;7770;52.158;5.372;2022-07-21T08:27:18;44.67;;;34.40;;
15340;SDS011;7770;52.158;5.372;2022-07-21T08:30:04;40.10;;;33.50;;
15340;SDS011;7770;52.158;5.372;2022-07-21T08:32:51;41.30;;;35.17;;
15340;SDS011;7770;52.158;5.372;2022-07-21T08:35:37;42.07;;;34.43;;
15340;SDS011;7770;52.158;5.372;2022-07-21T08:38:23;43.60;;;35.50;;
15340;SDS011;7770;52.158;5.372;2022-07-21T08:41:09;43.40;;;35.40;;
15340;SDS011;7770;52.158;5.372;2022-07-21T08:43:56;40.93;;;34.40;;
15340;SDS011;7770;52.158;5.372;2022-07-21T08:46:42;43.60;;;35.40;;
15340;SDS011;7770;52.158;5.372;2022-07-21T08:49:35;41.80;;;36.20;;
15340;SDS011;7770;52.158;5.372;2022-07-21T08:52:21;48.13;;;35.93;;
15340;SDS011;7770;52.158;5.372;2022-07-21T08:55:07;42.03;;;35.53;;
15340;SDS011;7770;52.158;5.372;2022-07-21T08:57:53;41.63;;;34.90;;
15340;SDS011;7770;52.158;5.372;2022-07-21T09:00:43;44.27;;;35.53;;
15340;SDS011;7770;52.158;5.372;2022-07-21T09:03:33;42.57;;;34.73;;
15340;SDS011;7770;52.158;5.372;2022-07-21T09:06:19;40.87;;;33.27;;
15340;SDS011;7770;52.158;5.372;2022-07-21T09:09:06;29.33;;;26.33;;
15340;SDS011;7770;52.158;5.372;2022-07-21T09:12:06;30.47;;;25.63;;
15340;SDS011;7770;52.158;5.372;2022-07-21T09:14:52;28.23;;;24.30;;
15340;SDS011;7770;52.158;5.372;2022-07-21T09:18:05;24.13;;;20.63;;
15340;SDS011;7770;52.158;5.372;2022-07-21T09:20:58;21.53;;;19.43;;
15340;SDS011;7770;52.158;5.372;2022-07-21T09:23:45;19.40;;;17.50;;
15340;SDS011;7770;52.158;5.372;2022-07-21T09:26:31;17.03;;;15.07;;
15340;SDS011;7770;52.158;5.372;2022-07-21T09:29:17;10.97;;;9.90;;
15340;SDS011;7770;52.158;5.372;2022-07-21T09:35:11;10.23;;;9.33;;
15340;SDS011;7770;52.158;5.372;2022-07-21T09:38:10;11.00;;;10.10;;
15340;SDS011;7770;52.158;5.372;2022-07-21T09:41:04;10.87;;;9.87;;
15340;SDS011;7770;52.158;5.372;2022-07-21T09:43:56;10.97;;;9.90;;
15340;SDS011;7770;52.158;5.372;2022-07-21T09:46:42;10.70;;;9.77;;
15340;SDS011;7770;52.158;5.372;2022-07-21T09:49:31;10.37;;;9.47;;
15340;SDS011;7770;52.158;5.372;2022-07-21T09:55:19;8.70;;;7.90;;
15340;SDS011;7770;52.158;5.372;2022-07-21T09:58:05;9.20;;;8.40;;
15340;SDS011;7770;52.158;5.372;2022-07-21T10:00:51;8.73;;;8.03;;
15340;SDS011;7770;52.158;5.372;2022-07-21T10:03:39;8.30;;;7.50;;
15340;SDS011;7770;52.158;5.372;2022-07-21T10:06:27;8.30;;;7.60;;
15340;SDS011;7770;52.158;5.372;2022-07-21T10:09:18;8.37;;;7.67;;
15340;SDS011;7770;52.158;5.372;2022-07-21T10:12:05;8.13;;;7.50;;
15340;SDS011;7770;52.158;5.372;2022-07-21T10:14:53;7.67;;;6.97;;
15340;SDS011;7770;52.158;5.372;2022-07-21T10:17:40;8.07;;;7.27;;
15340;SDS011;7770;52.158;5.372;2022-07-21T10:20:30;7.80;;;7.10;;
15340;SDS011;7770;52.158;5.372;2022-07-21T10:23:28;7.97;;;7.37;;
15340;SDS011;7770;52.158;5.372;2022-07-21T10:26:24;7.53;;;6.83;;
15340;SDS011;7770;52.158;5.372;2022-07-21T10:29:10;7.73;;;7.03;;
15340;SDS011;7770;52.158;5.372;2022-07-21T10:32:07;7.37;;;6.77;;
15340;SDS011;7770;52.158;5.372;2022-07-21T10:35:01;9.40;;;7.37;;
15340;SDS011;7770;52.158;5.372;2022-07-21T10:41:35;8.87;;;8.17;;
15340;SDS011;7770;52.158;5.372;2022-07-21T10:47:17;9.63;;;8.83;;
15340;SDS011;7770;52.158;5.372;2022-07-21T10:50:10;10.47;;;9.57;;
15340;SDS011;7770;52.158;5.372;2022-07-21T10:53:25;9.53;;;8.73;;
15340;SDS011;7770;52.158;5.372;2022-07-21T10:56:27;9.90;;;9.00;;
15340;SDS011;7770;52.158;5.372;2022-07-21T10:59:14;10.43;;;9.53;;
15340;SDS011;7770;52.158;5.372;2022-07-21T11:02:24;10.00;;;9.10;;
15340;SDS011;7770;52.158;5.372;2022-07-21T11:05:13;10.80;;;9.70;;
15340;SDS011;7770;52.158;5.372;2022-07-21T11:19:43;11.13;;;10.00;;
15340;SDS011;7770;52.158;5.372;2022-07-21T11:22:35;11.00;;;9.87;;
15340;SDS011;7770;52.158;5.372;2022-07-21T11:25:22;10.00;;;9.10;;
15340;SDS011;7770;52.158;5.372;2022-07-21T11:28:18;10.70;;;9.70;;
15340;SDS011;7770;52.158;5.372;2022-07-21T11:34:01;9.47;;;8.67;;
15340;SDS011;7770;52.158;5.372;2022-07-21T11:36:47;9.90;;;9.10;;
15340;SDS011;7770;52.158;5.372;2022-07-21T11:39:45;10.47;;;9.40;;
15340;SDS011;7770;52.158;5.372;2022-07-21T11:42:31;9.30;;;8.50;;
15340;SDS011;7770;52.158;5.372;2022-07-21T11:45:22;8.97;;;8.17;;
15340;SDS011;7770;52.158;5.372;2022-07-21T11:48:13;8.67;;;7.87;;
15340;SDS011;7770;52.158;5.372;2022-07-21T11:51:00;8.67;;;7.87;;
15340;SDS011;7770;52.158;5.372;2022-07-21T11:53:47;7.97;;;7.17;;
15340;SDS011;7770;52.158;5.372;2022-07-21T11:56:37;7.80;;;7.20;;
15340;SDS011;7770;52.158;5.372;2022-07-21T11:59:24;7.67;;;6.93;;
15340;SDS011;7770;52.158;5.372;2022-07-21T12:05:01;7.30;;;6.70;;
15340;SDS011;7770;52.158;5.372;2022-07-21T12:07:53;7.23;;;6.53;;
15340;SDS011;7770;52.158;5.372;2022-07-21T12:10:40;6.10;;;5.60;;
15340;SDS011;7770;52.158;5.372;2022-07-21T12:13:26;6.23;;;5.70;;
15340;SDS011;7770;52.158;5.372;2022-07-21T12:16:12;6.40;;;5.90;;
15340;SDS011;7770;52.158;5.372;2022-07-21T12:19:10;6.43;;;5.93;;
15340;SDS011;7770;52.158;5.372;2022-07-21T12:22:00;6.10;;;5.60;;
15340;SDS011;7770;52.158;5.372;2022-07-21T12:24:47;6.20;;;5.70;;
15340;SDS011;7770;52.158;5.372;2022-07-21T12:27:45;6.13;;;5.60;;
15340;SDS011;7770;52.158;5.372;2022-07-21T12:33:27;5.70;;;5.30;;
15340;SDS011;7770;52.158;5.372;2022-07-21T12:36:14;5.87;;;5.27;;
15340;SDS011;7770;52.158;5.372;2022-07-21T12:39:01;6.07;;;5.57;;
15340;SDS011;7770;52.158;5.372;2022-07-21T12:42:32;5.40;;;5.00;;
15340;SDS011;7770;52.158;5.372;2022-07-21T12:45:23;5.30;;;4.90;;
15340;SDS011;7770;52.158;5.372;2022-07-21T12:48:09;5.10;;;4.60;;
15340;SDS011;7770;52.158;5.372;2022-07-21T12:51:10;5.60;;;5.13;;
15340;SDS011;7770;52.158;5.372;2022-07-21T12:54:06;5.90;;;5.40;;
15340;SDS011;7770;52.158;5.372;2022-07-21T12:56:52;6.00;;;5.40;;
15340;SDS011;7770;52.158;5.372;2022-07-21T12:59:38;6.50;;;6.00;;
15340;SDS011;7770;52.158;5.372;2022-07-21T13:02:24;6.30;;;5.77;;
15340;SDS011;7770;52.158;5.372;2022-07-21T13:05:12;6.10;;;5.60;;
15340;SDS011;7770;52.158;5.372;2022-07-21T13:07:58;6.37;;;5.80;;
15340;SDS011;7770;52.158;5.372;2022-07-21T13:10:44;6.17;;;5.67;;
15340;SDS011;7770;52.158;5.372;2022-07-21T13:13:31;5.60;;;5.10;;
15340;SDS011;7770;52.158;5.372;2022-07-21T13:16:17;5.47;;;4.97;;
15340;SDS011;7770;52.158;5.372;2022-07-21T13:19:05;5.60;;;5.10;;
15340;SDS011;7770;52.158;5.372;2022-07-21T13:21:51;5.43;;;4.93;;
15340;SDS011;7770;52.158;5.372;2022-07-21T13:24:38;4.90;;;4.50;;
15340;SDS011;7770;52.158;5.372;2022-07-21T13:27:24;5.60;;;4.90;;
15340;SDS011;7770;52.158;5.372;2022-07-21T13:30:10;4.40;;;4.00;;
15340;SDS011;7770;52.158;5.372;2022-07-21T13:32:56;4.43;;;4.00;;
15340;SDS011;7770;52.158;5.372;2022-07-21T13:35:42;4.33;;;3.87;;
15340;SDS011;7770;52.158;5.372;2022-07-21T13:38:29;4.13;;;3.73;;
15340;SDS011;7770;52.158;5.372;2022-07-21T13:41:15;3.60;;;3.40;;
15340;SDS011;7770;52.158;5.372;2022-07-21T13:44:02;3.70;;;3.37;;
15340;SDS011;7770;52.158;5.372;2022-07-21T13:46:49;3.40;;;3.10;;
15340;SDS011;7770;52.158;5.372;2022-07-21T13:49:35;3.13;;;2.93;;
15340;SDS011;7770;52.158;5.372;2022-07-21T13:52:21;3.43;;;3.13;;
15340;SDS011;7770;52.158;5.372;2022-07-21T13:55:07;3.60;;;3.30;;
15340;SDS011;7770;52.158;5.372;2022-07-21T13:57:54;4.63;;;3.43;;
15340;SDS011;7770;52.158;5.372;2022-07-21T14:00:41;4.13;;;3.70;;
15340;SDS011;7770;52.158;5.372;2022-07-21T14:03:27;3.63;;;3.33;;
15340;SDS011;7770;52.158;5.372;2022-07-21T14:06:13;3.70;;;3.40;;
15340;SDS011;7770;52.158;5.372;2022-07-21T14:08:59;5.20;;;3.90;;
15340;SDS011;7770;52.158;5.372;2022-07-21T14:11:45;4.87;;;4.20;;
15340;SDS011;7770;52.158;5.372;2022-07-21T14:14:31;6.70;;;3.90;;
15340;SDS011;7770;52.158;5.372;2022-07-21T14:17:18;4.53;;;4.13;;
15340;SDS011;7770;52.158;5.372;2022-07-21T14:20:04;4.60;;;3.80;;
15340;SDS011;7770;52.158;5.372;2022-07-21T14:22:50;6.20;;;3.83;;
15340;SDS011;7770;52.158;5.372;2022-07-21T14:25:36;4.40;;;4.00;;
15340;SDS011;7770;52.158;5.372;2022-07-21T14:28:22;4.70;;;4.20;;
15340;SDS011;7770;52.158;5.372;2022-07-21T14:31:08;6.87;;;4.13;;
15340;SDS011;7770;52.158;5.372;2022-07-21T14:33:56;4.63;;;4.23;;
15340;SDS011;7770;52.158;5.372;2022-07-21T14:36:42;4.77;;;4.30;;
15340;SDS011;7770;52.158;5.372;2022-07-21T14:39:28;5.30;;;4.80;;
15340;SDS011;7770;52.158;5.372;2022-07-21T14:42:15;6.00;;;5.20;;
15340;SDS011;7770;52.158;5.372;2022-07-21T14:45:02;5.00;;;4.60;;
15340;SDS011;7770;52.158;5.372;2022-07-21T14:47:50;5.43;;;5.03;;
15340;SDS011;7770;52.158;5.372;2022-07-21T14:50:37;4.87;;;4.47;;
15340;SDS011;7770;52.158;5.372;2022-07-21T14:53:23;5.90;;;5.40;;
15340;SDS011;7770;52.158;5.372;2022-07-21T14:56:09;6.10;;;5.47;;
15340;SDS011;7770;52.158;5.372;2022-07-21T14:58:55;5.53;;;5.07;;
15340;SDS011;7770;52.158;5.372;2022-07-21T15:01:41;5.73;;;5.27;;
15340;SDS011;7770;52.158;5.372;2022-07-21T15:04:28;6.10;;;5.60;;
15340;SDS011;7770;52.158;5.372;2022-07-21T15:07:14;6.00;;;5.50;;
15340;SDS011;7770;52.158;5.372;2022-07-21T15:10:00;7.20;;;6.63;;
15340;SDS011;7770;52.158;5.372;2022-07-21T15:12:46;7.30;;;6.73;;
15340;SDS011;7770;52.158;5.372;2022-07-21T15:15:32;7.60;;;7.00;;
15340;SDS011;7770;52.158;5.372;2022-07-21T15:18:20;8.17;;;7.47;;
15340;SDS011;7770;52.158;5.372;2022-07-21T15:21:07;8.10;;;7.50;;
15340;SDS011;7770;52.158;5.372;2022-07-21T15:23:53;8.43;;;7.63;;
15340;SDS011;7770;52.158;5.372;2022-07-21T15:26:39;5.37;;;4.87;;
15340;SDS011;7770;52.158;5.372;2022-07-21T15:29:25;3.80;;;3.50;;
15340;SDS011;7770;52.158;5.372;2022-07-21T15:32:11;3.23;;;2.93;;
15340;SDS011;7770;52.158;5.372;2022-07-21T15:34:57;3.53;;;2.90;;
15340;SDS011;7770;52.158;5.372;2022-07-21T15:37:43;3.73;;;2.70;;
15340;SDS011;7770;52.158;5.372;2022-07-21T15:40:29;3.77;;;2.73;;
15340;SDS011;7770;52.158;5.372;2022-07-21T15:43:16;2.57;;;2.20;;
15340;SDS011;7770;52.158;5.372;2022-07-21T15:46:03;4.27;;;2.30;;
15340;SDS011;7770;52.158;5.372;2022-07-21T15:48:49;2.20;;;2.00;;
15340;SDS011;7770;52.158;5.372;2022-07-21T15:51:35;2.47;;;2.17;;
15340;SDS011;7770;52.158;5.372;2022-07-21T15:54:21;3.27;;;2.37;;
15340;SDS011;7770;52.158;5.372;2022-07-21T15:57:07;2.90;;;2.33;;
15340;SDS011;7770;52.158;5.372;2022-07-21T15:59:54;1.97;;;1.70;;
15340;SDS011;7770;52.158;5.372;2022-07-21T16:02:40;1.90;;;1.80;;
15340;SDS011;7770;52.158;5.372;2022-07-21T16:05:28;4.70;;;2.13;;
15340;SDS011;7770;52.158;5.372;2022-07-21T16:08:15;2.93;;;2.07;;
15340;SDS011;7770;52.158;5.372;2022-07-21T16:11:01;3.70;;;2.07;;
15340;SDS011;7770;52.158;5.372;2022-07-21T16:13:47;2.80;;;2.30;;
15340;SDS011;7770;52.158;5.372;2022-07-21T16:16:33;3.50;;;2.30;;
15340;SDS011;7770;52.158;5.372;2022-07-21T16:19:19;3.00;;;2.33;;
15340;SDS011;7770;52.158;5.372;2022-07-21T16:22:07;3.77;;;2.23;;
15340;SDS011;7770;52.158;5.372;2022-07-21T16:24:53;2.80;;;2.40;;
15340;SDS011;7770;52.158;5.372;2022-07-21T16:27:39;2.97;;;2.10;;
15340;SDS011;7770;52.158;5.372;2022-07-21T16:30:25;3.20;;;2.53;;
15340;SDS011;7770;52.158;5.372;2022-07-21T16:33:11;3.57;;;2.60;;
15340;SDS011;7770;52.158;5.372;2022-07-21T16:35:57;3.10;;;2.10;;
15340;SDS011;7770;52.158;5.372;2022-07-21T16:38:43;3.17;;;2.23;;
15340;SDS011;7770;52.158;5.372;2022-07-21T16:41:29;4.17;;;2.40;;
15340;SDS011;7770;52.158;5.372;2022-07-21T16:44:16;3.07;;;2.50;;
15340;SDS011;7770;52.158;5.372;2022-07-21T16:47:03;3.63;;;2.43;;
15340;SDS011;7770;52.158;5.372;2022-07-21T16:49:49;3.87;;;2.30;;
15340;SDS011;7770;52.158;5.372;2022-07-21T16:52:35;3.70;;;2.60;;
15340;SDS011;7770;52.158;5.372;2022-07-21T16:55:21;3.20;;;2.10;;
15340;SDS011;7770;52.158;5.372;2022-07-21T16:58:07;3.43;;;2.30;;
15340;SDS011;7770;52.158;5.372;2022-07-21T17:00:53;3.27;;;2.20;;
15340;SDS011;7770;52.158;5.372;2022-07-21T17:03:39;3.10;;;2.30;;
15340;SDS011;7770;52.158;5.372;2022-07-21T17:06:25;5.17;;;2.30;;
15340;SDS011;7770;52.158;5.372;2022-07-21T17:09:11;4.43;;;2.27;;
15340;SDS011;7770;52.158;5.372;2022-07-21T17:11:57;5.70;;;2.40;;
15340;SDS011;7770;52.158;5.372;2022-07-21T17:14:43;4.67;;;2.30;;
15340;SDS011;7770;52.158;5.372;2022-07-21T17:17:29;3.83;;;2.60;;
15340;SDS011;7770;52.158;5.372;2022-07-21T17:20:15;4.17;;;2.60;;